createdAt,value
2018-08-24T00:00:56.605Z,18.60
2018-08-24T00:03:25.106Z,18.50
2018-08-24T00:05:53.522Z,18.60
2018-08-24T00:08:28.482Z,18.50
2018-08-24T00:10:56.996Z,18.50
2018-08-24T00:13:25.482Z,18.60
2018-08-24T00:15:53.872Z,18.50
2018-08-24T00:18:22.332Z,18.50
2018-08-24T00:20:50.732Z,18.50
2018-08-24T00:23:19.119Z,18.40
2018-08-24T00:25:47.572Z,18.40
2018-08-24T00:28:16.044Z,18.40
2018-08-24T00:30:44.460Z,18.20
2018-08-24T00:33:12.936Z,18.20
2018-08-24T00:35:42.074Z,18.20
2018-08-24T00:38:10.477Z,18.20
2018-08-24T00:40:38.979Z,18.20
2018-08-24T00:43:07.613Z,18.30
2018-08-24T00:45:36.094Z,18.20
2018-08-24T00:48:04.531Z,18.30
2018-08-24T00:50:33.053Z,18.30
2018-08-24T00:53:01.471Z,18.30
2018-08-24T00:55:29.876Z,18.30
2018-08-24T00:57:58.337Z,18.30
2018-08-24T01:00:32.240Z,18.30
2018-08-24T01:03:00.753Z,18.30
2018-08-24T01:05:29.233Z,18.30
2018-08-24T01:08:02.982Z,18.30
2018-08-24T01:10:31.707Z,18.30
2018-08-24T01:13:00.170Z,18.20
2018-08-24T01:15:33.895Z,18.10
2018-08-24T01:18:07.466Z,18.10
2018-08-24T01:20:35.963Z,18.10
2018-08-24T01:23:04.373Z,18.10
2018-08-24T01:25:32.817Z,18.10
2018-08-24T01:28:01.209Z,18.10
2018-08-24T01:30:29.615Z,18.10
2018-08-24T01:32:58.088Z,18.10
2018-08-24T01:35:26.483Z,18.10
2018-08-24T01:37:54.955Z,18.10
2018-08-24T01:40:23.445Z,18.10
2018-08-24T01:42:51.860Z,18.00
2018-08-24T01:45:20.239Z,17.90
2018-08-24T01:47:48.628Z,17.90
2018-08-24T01:50:17.069Z,17.90
2018-08-24T01:52:45.670Z,17.90
2018-08-24T01:55:14.209Z,17.90
2018-08-24T01:57:42.688Z,17.80
2018-08-24T02:00:13.417Z,17.80
2018-08-24T02:02:42.524Z,17.80
2018-08-24T02:05:10.949Z,17.80
2018-08-24T02:07:39.871Z,17.80
2018-08-24T02:10:13.632Z,17.80
2018-08-24T02:12:47.299Z,17.80
2018-08-24T02:15:15.917Z,17.90
2018-08-24T02:17:49.760Z,17.80
2018-08-24T02:20:23.767Z,17.80
2018-08-24T02:22:54.764Z,17.90
2018-08-24T02:25:24.200Z,17.80
2018-08-24T02:27:52.583Z,17.80
2018-08-24T02:30:21.011Z,17.90
2018-08-24T02:32:49.591Z,17.80
2018-08-24T02:35:19.719Z,17.70
2018-08-24T02:37:50.549Z,17.70
2018-08-24T02:40:18.985Z,17.60
2018-08-24T02:42:47.922Z,17.70
2018-08-24T02:45:16.974Z,17.70
2018-08-24T02:47:45.421Z,17.70
2018-08-24T02:50:13.835Z,17.70
2018-08-24T02:52:42.349Z,17.80
2018-08-24T02:55:10.777Z,17.80
2018-08-24T02:57:39.269Z,17.80
2018-08-24T03:00:07.794Z,17.90
2018-08-24T03:02:36.243Z,17.80
2018-08-24T03:05:05.162Z,17.90
2018-08-24T03:07:33.456Z,17.90
2018-08-24T03:10:01.911Z,17.90
2018-08-24T03:12:30.415Z,17.90
2018-08-24T03:14:58.928Z,18.00
2018-08-24T03:17:32.854Z,17.90
2018-08-24T03:20:01.232Z,17.90
2018-08-24T03:22:29.701Z,18.00
2018-08-24T03:24:58.129Z,18.00
2018-08-24T03:27:26.626Z,18.00
2018-08-24T03:29:55.052Z,17.90
2018-08-24T03:32:23.520Z,17.80
2018-08-24T03:34:51.969Z,17.80
2018-08-24T03:37:20.405Z,17.90
2018-08-24T03:39:48.826Z,17.80
2018-08-24T03:42:17.765Z,17.80
2018-08-24T03:44:46.299Z,17.70
2018-08-24T03:47:14.682Z,17.70
2018-08-24T03:49:43.084Z,17.70
2018-08-24T03:52:11.512Z,17.60
2018-08-24T03:54:39.887Z,17.60
2018-08-24T03:57:08.264Z,17.60
2018-08-24T03:59:36.744Z,17.50
2018-08-24T04:02:08.705Z,17.50
2018-08-24T04:04:37.189Z,17.50
2018-08-24T04:07:05.788Z,17.50
2018-08-24T04:09:34.236Z,17.50
2018-08-24T04:12:02.686Z,17.50
2018-08-24T04:14:31.093Z,17.50
2018-08-24T04:17:05.022Z,17.40
2018-08-24T04:19:33.495Z,17.40
2018-08-24T04:22:01.896Z,17.40
2018-08-24T04:24:30.313Z,17.40
2018-08-24T04:26:58.757Z,17.30
2018-08-24T04:29:27.184Z,17.30
2018-08-24T04:31:55.616Z,17.40
2018-08-24T04:34:24.043Z,17.30
2018-08-24T04:36:52.420Z,17.30
2018-08-24T04:39:20.880Z,17.40
2018-08-24T04:41:49.291Z,17.40
2018-08-24T04:44:17.740Z,17.50
2018-08-24T04:46:46.133Z,17.50
2018-08-24T04:49:14.548Z,17.50
2018-08-24T04:51:44.157Z,17.50
2018-08-24T04:54:12.776Z,17.60
2018-08-24T04:56:41.210Z,17.70
2018-08-24T04:59:09.874Z,17.80
2018-08-24T05:01:38.366Z,17.80
2018-08-24T05:04:06.860Z,17.90
2018-08-24T05:06:35.256Z,18.00
2018-08-24T05:09:03.789Z,18.20
2018-08-24T05:11:32.198Z,18.30
2018-08-24T05:14:00.607Z,18.40
2018-08-24T05:16:29.088Z,18.60
2018-08-24T05:18:57.494Z,18.80
2018-08-24T05:21:25.994Z,18.90
2018-08-24T05:23:54.344Z,19.00
2018-08-24T05:26:22.745Z,19.00
2018-08-24T05:28:51.242Z,19.10
2018-08-24T05:31:19.746Z,19.10
2018-08-24T05:33:48.336Z,19.00
2018-08-24T05:36:16.826Z,18.80
2018-08-24T05:38:45.391Z,18.80
2018-08-24T05:41:13.969Z,18.60
2018-08-24T05:43:42.552Z,18.50
2018-08-24T05:46:11.030Z,18.50
2018-08-24T05:48:39.473Z,18.50
2018-08-24T05:51:07.902Z,18.50
2018-08-24T05:53:36.702Z,18.40
2018-08-24T05:56:05.204Z,18.40
2018-08-24T05:58:33.609Z,18.40
2018-08-24T06:01:02.280Z,18.50
2018-08-24T06:03:30.726Z,18.70
2018-08-24T06:06:01.779Z,18.80
2018-08-24T06:08:31.474Z,19.10
2018-08-24T06:11:00.873Z,19.70
2018-08-24T06:13:29.496Z,19.90
2018-08-24T06:15:58.253Z,20.00
2018-08-24T06:18:26.755Z,20.00
2018-08-24T06:20:55.239Z,20.50
2018-08-24T06:23:23.683Z,21.10
2018-08-24T06:25:52.094Z,21.70
2018-08-24T06:28:20.517Z,22.40
2018-08-24T06:30:49.006Z,22.60
2018-08-24T06:33:17.479Z,22.80
2018-08-24T06:35:45.952Z,22.60
2018-08-24T06:38:15.230Z,22.10
2018-08-24T06:40:43.682Z,22.40
2018-08-24T06:43:12.064Z,22.40
2018-08-24T06:45:40.825Z,22.30
2018-08-24T06:48:09.239Z,22.60
2018-08-24T06:50:37.825Z,23.00
2018-08-24T06:53:06.364Z,23.40
2018-08-24T06:55:34.890Z,23.60
2018-08-24T06:58:03.457Z,23.30
2018-08-24T07:00:32.852Z,23.10
2018-08-24T07:03:02.361Z,23.00
2018-08-24T07:05:31.331Z,22.80
2018-08-24T07:08:02.646Z,22.50
2018-08-24T07:10:37.956Z,22.30
2018-08-24T07:13:06.832Z,22.30
2018-08-24T07:15:35.179Z,22.00
2018-08-24T07:18:04.026Z,22.00
2018-08-24T07:20:32.776Z,21.90
2018-08-24T07:23:01.264Z,21.90
2018-08-24T07:25:29.650Z,21.80
2018-08-24T07:27:58.054Z,21.20
2018-08-24T07:30:26.560Z,21.10
2018-08-24T07:32:54.980Z,21.00
2018-08-24T07:35:23.453Z,20.90
2018-08-24T07:37:51.876Z,21.10
2018-08-24T07:40:20.403Z,21.30
2018-08-24T07:42:48.848Z,21.60
2018-08-24T07:45:17.368Z,21.60
2018-08-24T07:47:45.825Z,21.60
2018-08-24T07:50:14.247Z,21.90
2018-08-24T07:52:42.692Z,22.00
2018-08-24T07:55:11.194Z,22.10
2018-08-24T07:57:39.766Z,22.20
2018-08-24T08:00:08.883Z,22.00
2018-08-24T08:02:42.877Z,21.80
2018-08-24T08:05:11.384Z,21.30
2018-08-24T08:07:39.850Z,21.50
2018-08-24T08:10:08.733Z,21.40
2018-08-24T08:12:37.207Z,21.50
2018-08-24T08:15:09.834Z,21.50
2018-08-24T08:17:39.535Z,21.70
2018-08-24T08:20:08.683Z,21.70
2018-08-24T08:22:37.178Z,21.90
2018-08-24T08:25:05.720Z,21.80
2018-08-24T08:27:34.485Z,21.60
2018-08-24T08:30:04.303Z,21.50
2018-08-24T08:32:33.044Z,21.50
2018-08-24T08:35:01.779Z,21.40
2018-08-24T08:37:30.283Z,21.30
2018-08-24T08:39:59.524Z,21.20
2018-08-24T08:42:28.322Z,21.10
2018-08-24T08:44:56.969Z,20.70
2018-08-24T08:47:25.455Z,20.60
2018-08-24T08:49:54.041Z,20.60
2018-08-24T08:52:22.532Z,20.50
2018-08-24T08:54:51.418Z,20.70
2018-08-24T08:57:20.829Z,20.70
2018-08-24T08:59:49.605Z,20.60
2018-08-24T09:02:18.195Z,20.80
2018-08-24T09:04:46.640Z,20.90
2018-08-24T09:07:15.097Z,21.00
2018-08-24T09:09:43.486Z,20.70
2018-08-24T09:12:11.896Z,21.00
2018-08-24T09:14:40.365Z,21.20
2018-08-24T09:17:14.185Z,21.30
2018-08-24T09:19:48.081Z,21.40
2018-08-24T09:22:21.858Z,21.70
2018-08-24T09:24:55.504Z,21.80
2018-08-24T09:27:32.155Z,21.50
2018-08-24T09:30:02.451Z,21.70
2018-08-24T09:32:30.971Z,21.70
2018-08-24T09:34:59.406Z,21.70
2018-08-24T09:37:33.298Z,21.50
2018-08-24T09:40:01.770Z,21.20
2018-08-24T09:42:30.236Z,21.20
2018-08-24T09:44:59.112Z,21.20
2018-08-24T09:47:33.088Z,21.30
2018-08-24T09:50:06.844Z,21.40
2018-08-24T09:52:35.344Z,21.50
2018-08-24T09:55:03.913Z,21.50
2018-08-24T09:57:32.361Z,21.50
2018-08-24T10:00:00.821Z,21.60
2018-08-24T10:02:34.570Z,21.40
2018-08-24T10:05:08.324Z,22.10
2018-08-24T10:07:42.219Z,22.70
2018-08-24T10:10:10.662Z,23.10
2018-08-24T10:12:39.093Z,23.80
2018-08-24T10:15:09.010Z,24.20
2018-08-24T10:17:37.534Z,24.10
2018-08-24T10:20:06.653Z,24.20
2018-08-24T10:22:35.184Z,24.10
2018-08-24T10:25:03.911Z,24.10
2018-08-24T10:27:32.863Z,23.90
2018-08-24T10:30:01.366Z,23.90
2018-08-24T10:32:29.884Z,23.10
2018-08-24T10:34:58.396Z,23.20
2018-08-24T10:37:26.911Z,22.70
2018-08-24T10:39:55.393Z,22.40
2018-08-24T10:42:23.877Z,22.10
2018-08-24T10:44:52.277Z,22.10
2018-08-24T10:47:20.779Z,22.00
2018-08-24T10:49:49.334Z,21.90
2018-08-24T10:52:17.760Z,21.50
2018-08-24T10:54:46.269Z,21.40
2018-08-24T10:57:14.569Z,21.20
2018-08-24T10:59:42.985Z,21.00
2018-08-24T11:02:11.517Z,21.10
2018-08-24T11:04:39.989Z,21.00
2018-08-24T11:07:08.426Z,20.90
2018-08-24T11:09:37.050Z,20.70
2018-08-24T11:12:05.461Z,20.70
2018-08-24T11:14:33.905Z,20.70
2018-08-24T11:17:02.322Z,20.90
2018-08-24T11:19:30.828Z,20.90
2018-08-24T11:21:59.321Z,21.20
2018-08-24T11:24:27.754Z,21.40
2018-08-24T11:26:56.179Z,21.30
2018-08-24T11:29:24.634Z,21.50
2018-08-24T11:31:53.090Z,21.50
2018-08-24T11:34:21.562Z,21.50
2018-08-24T11:36:50.085Z,21.40
2018-08-24T11:39:18.564Z,21.60
2018-08-24T11:41:47.041Z,22.00
2018-08-24T11:44:15.472Z,22.00
2018-08-24T11:46:43.889Z,22.00
2018-08-24T11:49:12.328Z,21.80
2018-08-24T11:51:40.901Z,21.60
2018-08-24T11:54:09.398Z,21.30
2018-08-24T11:56:37.751Z,21.30
2018-08-24T11:59:06.218Z,21.40
2018-08-24T12:01:34.663Z,21.60
2018-08-24T12:04:03.090Z,22.00
2018-08-24T12:06:31.561Z,21.90
2018-08-24T12:09:00.007Z,22.10
2018-08-24T12:11:28.449Z,21.80
2018-08-24T12:13:57.049Z,22.30
2018-08-24T12:16:25.471Z,22.80
2018-08-24T12:18:53.972Z,22.80
2018-08-24T12:21:22.997Z,22.40
2018-08-24T12:23:51.561Z,22.40
2018-08-24T12:26:20.073Z,22.40
2018-08-24T12:28:48.559Z,22.10
2018-08-24T12:31:17.095Z,21.80
2018-08-24T12:33:45.673Z,22.10
2018-08-24T12:36:16.084Z,22.20
2018-08-24T12:38:45.029Z,22.10
2018-08-24T12:41:13.597Z,22.20
2018-08-24T12:43:42.083Z,22.10
2018-08-24T12:46:10.426Z,22.10
2018-08-24T12:48:38.864Z,21.90
2018-08-24T12:51:07.340Z,21.60
2018-08-24T12:53:36.425Z,21.70
2018-08-24T12:56:05.037Z,21.80
2018-08-24T12:58:33.601Z,22.00
2018-08-24T13:01:02.117Z,22.00
2018-08-24T13:03:30.626Z,22.00
2018-08-24T13:05:59.167Z,21.80
2018-08-24T13:08:27.762Z,21.50
2018-08-24T13:10:56.240Z,21.40
2018-08-24T13:13:24.809Z,21.40
2018-08-24T13:15:53.259Z,21.30
2018-08-24T13:18:21.875Z,21.20
2018-08-24T13:20:50.441Z,21.20
2018-08-24T13:23:18.892Z,21.00
2018-08-24T13:25:47.356Z,21.20
2018-08-24T13:28:15.836Z,21.60
2018-08-24T13:30:44.355Z,21.80
2018-08-24T13:33:12.762Z,22.00
2018-08-24T13:35:41.287Z,22.00
2018-08-24T13:38:09.737Z,21.80
2018-08-24T13:40:38.185Z,22.10
2018-08-24T13:43:07.329Z,22.30
2018-08-24T13:45:35.982Z,22.30
2018-08-24T13:48:04.970Z,22.60
2018-08-24T13:50:33.431Z,22.50
2018-08-24T13:53:02.100Z,22.80
2018-08-24T13:55:30.634Z,22.70
2018-08-24T13:57:59.100Z,22.90
2018-08-24T14:00:27.751Z,23.00
2018-08-24T14:02:56.884Z,23.00
2018-08-24T14:05:25.584Z,23.20
2018-08-24T14:07:54.141Z,23.10
2018-08-24T14:10:22.751Z,23.40
2018-08-24T14:12:51.396Z,23.80
2018-08-24T14:15:19.911Z,23.80
2018-08-24T14:17:51.854Z,23.40
2018-08-24T14:20:21.273Z,23.20
2018-08-24T14:22:49.740Z,22.90
2018-08-24T14:25:18.603Z,22.60
2018-08-24T14:27:47.155Z,22.70
2018-08-24T14:30:15.686Z,22.60
2018-08-24T14:32:44.357Z,22.50
2018-08-24T14:35:12.842Z,22.80
2018-08-24T14:37:41.956Z,22.80
2018-08-24T14:40:10.518Z,22.80
2018-08-24T14:42:38.988Z,23.10
2018-08-24T14:45:07.426Z,23.00
2018-08-24T14:47:35.845Z,23.20
2018-08-24T14:50:04.492Z,23.00
2018-08-24T14:52:32.936Z,22.70
2018-08-24T14:55:01.427Z,22.40
2018-08-24T14:57:29.876Z,22.10
2018-08-24T14:59:58.370Z,22.00
2018-08-24T15:02:26.831Z,21.90
2018-08-24T15:04:55.249Z,21.60
2018-08-24T15:07:23.689Z,21.60
2018-08-24T15:09:52.249Z,21.60
2018-08-24T15:12:20.683Z,21.50
2018-08-24T15:14:49.212Z,21.40
2018-08-24T15:17:17.749Z,21.30
2018-08-24T15:19:46.338Z,21.20
2018-08-24T15:22:14.818Z,21.20
2018-08-24T15:24:43.261Z,21.30
2018-08-24T15:27:11.670Z,21.10
2018-08-24T15:29:40.202Z,21.10
2018-08-24T15:32:08.840Z,21.00
2018-08-24T15:34:37.275Z,21.10
2018-08-24T15:37:05.771Z,21.10
2018-08-24T15:39:34.260Z,21.10
2018-08-24T15:42:02.948Z,20.90
2018-08-24T15:44:31.527Z,20.80
2018-08-24T15:46:59.989Z,20.70
2018-08-24T15:49:28.561Z,21.00
2018-08-24T15:51:57.052Z,21.10
2018-08-24T15:54:26.019Z,21.10
2018-08-24T15:56:54.439Z,21.00
2018-08-24T15:59:23.237Z,20.70
2018-08-24T16:01:51.643Z,20.60
2018-08-24T16:04:20.725Z,20.70
2018-08-24T16:06:49.700Z,20.70
2018-08-24T16:09:18.250Z,20.70
2018-08-24T16:11:46.784Z,20.80
2018-08-24T16:14:15.222Z,20.80
2018-08-24T16:16:43.795Z,20.80
2018-08-24T16:19:12.294Z,20.70
2018-08-24T16:21:40.756Z,20.80
2018-08-24T16:24:09.188Z,20.80
2018-08-24T16:26:37.679Z,20.90
2018-08-24T16:29:06.206Z,20.70
2018-08-24T16:31:34.658Z,20.80
2018-08-24T16:34:03.107Z,20.60
2018-08-24T16:36:31.643Z,20.50
2018-08-24T16:39:00.100Z,20.50
2018-08-24T16:41:28.548Z,20.40
2018-08-24T16:43:57.109Z,20.40
2018-08-24T16:46:25.542Z,20.30
2018-08-24T16:48:56.946Z,20.40
2018-08-24T16:51:25.365Z,20.20
2018-08-24T16:54:00.645Z,20.10
2018-08-24T16:56:29.192Z,20.00
2018-08-24T16:58:57.708Z,20.10
2018-08-24T17:01:26.141Z,20.20
2018-08-24T17:03:54.730Z,20.20
2018-08-24T17:06:23.185Z,20.20
2018-08-24T17:08:51.576Z,20.10
2018-08-24T17:11:20.028Z,20.00
2018-08-24T17:13:48.457Z,20.00
2018-08-24T17:16:16.942Z,20.00
2018-08-24T17:18:45.484Z,19.90
2018-08-24T17:21:13.944Z,19.90
2018-08-24T17:23:42.482Z,19.80
2018-08-24T17:26:10.985Z,19.70
2018-08-24T17:28:39.588Z,19.70
2018-08-24T17:31:07.987Z,19.60
2018-08-24T17:33:36.386Z,19.70
2018-08-24T17:36:04.900Z,19.70
2018-08-24T17:38:33.359Z,19.70
2018-08-24T17:41:01.952Z,19.60
2018-08-24T17:43:30.509Z,19.70
2018-08-24T17:45:59.018Z,19.60
2018-08-24T17:48:27.558Z,19.70
2018-08-24T17:50:56.044Z,19.50
2018-08-24T17:53:24.748Z,19.40
2018-08-24T17:55:53.265Z,19.30
2018-08-24T17:58:21.732Z,19.20
2018-08-24T18:00:50.163Z,19.20
2018-08-24T18:03:19.154Z,19.10
2018-08-24T18:05:47.628Z,19.10
2018-08-24T18:08:16.184Z,19.10
2018-08-24T18:10:44.682Z,18.90
2018-08-24T18:13:13.136Z,18.90
2018-08-24T18:15:42.002Z,18.80
2018-08-24T18:18:10.520Z,18.90
2018-08-24T18:20:39.107Z,18.80
2018-08-24T18:23:07.799Z,18.80
2018-08-24T18:25:36.287Z,18.80
2018-08-24T18:28:04.810Z,18.70
2018-08-24T18:30:33.278Z,18.70
2018-08-24T18:33:01.779Z,18.60
2018-08-24T18:35:30.331Z,18.60
2018-08-24T18:37:58.976Z,18.50
2018-08-24T18:40:27.603Z,18.50
2018-08-24T18:42:56.162Z,18.50
2018-08-24T18:45:24.625Z,18.50
2018-08-24T18:47:53.251Z,18.50
2018-08-24T18:50:21.881Z,18.60
2018-08-24T18:52:50.370Z,18.60
2018-08-24T18:55:18.859Z,18.60
2018-08-24T18:57:47.416Z,18.60
2018-08-24T19:00:15.914Z,18.60
2018-08-24T19:02:44.627Z,18.50
2018-08-24T19:05:13.742Z,18.50
2018-08-24T19:07:42.228Z,18.40
2018-08-24T19:10:10.780Z,18.50
2018-08-24T19:12:39.379Z,18.40
2018-08-24T19:15:07.843Z,18.30
2018-08-24T19:17:41.619Z,18.40
2018-08-24T19:20:15.616Z,18.30
2018-08-24T19:22:48.272Z,18.30
2018-08-24T19:25:16.765Z,18.20
2018-08-24T19:27:50.496Z,18.20
2018-08-24T19:30:24.442Z,18.10
2018-08-24T19:32:52.857Z,18.00
2018-08-24T19:35:21.302Z,18.10
2018-08-24T19:37:49.792Z,18.00
2018-08-24T19:40:23.642Z,17.90
2018-08-24T19:42:52.120Z,18.00
2018-08-24T19:45:20.591Z,17.90
2018-08-24T19:47:54.603Z,17.90
2018-08-24T19:50:23.062Z,17.90
2018-08-24T19:52:51.582Z,17.80
2018-08-24T19:55:20.067Z,17.90
2018-08-24T19:57:53.757Z,17.80
2018-08-24T20:00:22.251Z,17.80
2018-08-24T20:02:50.710Z,17.70
2018-08-24T20:05:19.300Z,17.70
2018-08-24T20:07:53.468Z,17.70
2018-08-24T20:10:22.028Z,17.60
2018-08-24T20:12:50.544Z,17.60
2018-08-24T20:15:24.349Z,17.60
2018-08-24T20:17:52.857Z,17.50
2018-08-24T20:20:21.313Z,17.50
2018-08-24T20:22:49.821Z,17.50
2018-08-24T20:25:18.312Z,17.40
2018-08-24T20:27:46.752Z,17.50
2018-08-24T20:30:15.327Z,17.40
2018-08-24T20:32:43.932Z,17.40
2018-08-24T20:35:12.448Z,17.40
2018-08-24T20:37:41.012Z,17.40
2018-08-24T20:40:09.535Z,17.40
2018-08-24T20:42:37.988Z,17.40
2018-08-24T20:45:06.550Z,17.30
2018-08-24T20:47:35.137Z,17.30
2018-08-24T20:50:03.716Z,17.30
2018-08-24T20:52:32.255Z,17.30
2018-08-24T20:55:00.789Z,17.30
2018-08-24T20:57:29.271Z,17.30
2018-08-24T20:59:57.791Z,17.20
2018-08-24T21:02:26.304Z,17.20
2018-08-24T21:04:54.730Z,17.20
2018-08-24T21:07:23.176Z,17.10
2018-08-24T21:09:52.044Z,17.10
2018-08-24T21:12:20.512Z,17.10
2018-08-24T21:14:49.075Z,17.00
2018-08-24T21:17:17.670Z,17.00
2018-08-24T21:19:46.181Z,17.00
2018-08-24T21:22:14.754Z,17.00
2018-08-24T21:24:43.195Z,17.00
2018-08-24T21:27:11.736Z,16.90
2018-08-24T21:29:40.202Z,16.90
2018-08-24T21:32:08.720Z,16.80
2018-08-24T21:34:37.136Z,16.80
2018-08-24T21:37:05.644Z,16.80
2018-08-24T21:39:34.147Z,16.70
2018-08-24T21:42:02.675Z,16.70
2018-08-24T21:44:31.099Z,16.70
2018-08-24T21:46:59.521Z,16.70
2018-08-24T21:49:28.114Z,16.60
2018-08-24T21:51:56.664Z,16.60
2018-08-24T21:54:25.185Z,16.60
2018-08-24T21:56:53.630Z,16.60
2018-08-24T21:59:22.295Z,16.50
2018-08-24T22:01:50.847Z,16.50
2018-08-24T22:04:19.387Z,16.50
2018-08-24T22:06:47.830Z,16.40
2018-08-24T22:09:16.292Z,16.40
2018-08-24T22:11:44.810Z,16.40
2018-08-24T22:14:13.380Z,16.40
2018-08-24T22:16:41.899Z,16.40
2018-08-24T22:19:10.438Z,16.30
2018-08-24T22:21:39.042Z,16.40
2018-08-24T22:24:07.554Z,16.30
2018-08-24T22:26:36.077Z,16.30
2018-08-24T22:29:04.596Z,16.30
2018-08-24T22:31:33.189Z,16.30
2018-08-24T22:34:01.757Z,16.30
2018-08-24T22:36:30.243Z,16.30
2018-08-24T22:38:58.695Z,16.20
2018-08-24T22:41:27.211Z,16.20
2018-08-24T22:43:55.659Z,16.20
2018-08-24T22:46:24.123Z,16.20
2018-08-24T22:48:52.586Z,16.20
2018-08-24T22:51:21.086Z,16.20
2018-08-24T22:53:49.530Z,16.10
2018-08-24T22:56:17.979Z,16.10
2018-08-24T22:58:46.432Z,16.10
2018-08-24T23:01:14.932Z,16.10
2018-08-24T23:03:43.391Z,16.10
2018-08-24T23:06:11.899Z,16.10
2018-08-24T23:08:40.444Z,16.10
2018-08-24T23:11:09.016Z,16.10
2018-08-24T23:13:37.510Z,16.10
2018-08-24T23:16:06.051Z,16.10
2018-08-24T23:18:34.676Z,15.90
2018-08-24T23:21:03.237Z,15.90
2018-08-24T23:23:31.686Z,15.90
2018-08-24T23:26:00.186Z,15.90
2018-08-24T23:28:28.614Z,15.90
2018-08-24T23:30:57.115Z,15.90
2018-08-24T23:33:25.766Z,15.90
2018-08-24T23:35:54.312Z,15.90
2018-08-24T23:38:22.777Z,15.80
2018-08-24T23:40:51.329Z,15.80
2018-08-24T23:43:19.962Z,15.80
2018-08-24T23:45:48.393Z,15.80
2018-08-24T23:48:16.944Z,15.80
2018-08-24T23:50:45.516Z,15.80
2018-08-24T23:53:13.966Z,15.70
2018-08-24T23:55:42.552Z,15.70
2018-08-24T23:58:11.027Z,15.70
